Time;durP1;ratioP1;P1;durP2;ratioP2;P2;SDS_P1;SDS_P2;PMS_P1;PMS_P2;Temp;Humidity;BMP_temperature;BMP_pressure;BME280_temperature;BME280_humidity;BME280_pressure;Samples;Min_cycle;Max_cycle;Signal;HPM_P1;HPM_P2
2023/06/26 00:00:12;;;;;;;14.03;11.67;;;;;;;21.32;69.13;100688.22;677853;29;1047;-82
2023/06/26 00:00:33;;;;;;;13.45;11.43;;;;;;;21.32;69.01;100687.31;684528;28;1131;-82
2023/06/26 00:00:53;;;;;;;14.00;11.30;;;;;;;21.29;69.25;100679.44;679878;29;1297;-82
2023/06/26 00:01:14;;;;;;;13.98;11.18;;;;;;;21.34;69.30;100685.53;679717;29;1423;-82
2023/06/26 00:01:35;;;;;;;13.40;11.05;;;;;;;21.31;69.20;100686.47;675451;29;1361;-82
2023/06/26 00:02:05;;;;;;;13.07;11.13;;;;;;;21.35;69.15;100689.94;679916;29;1277;-82
2023/06/26 00:02:26;;;;;;;12.70;11.10;;;;;;;21.30;68.91;100689.13;685274;28;1367;-82
2023/06/26 00:02:47;;;;;;;14.60;11.40;;;;;;;21.31;69.10;100690.88;677348;29;1072;-82
2023/06/26 00:03:07;;;;;;;13.77;11.15;;;;;;;21.26;68.99;100680.34;676419;29;1594;-82
2023/06/26 00:03:28;;;;;;;13.43;10.90;;;;;;;21.29;68.76;100677.66;677444;29;1388;-82
2023/06/26 00:03:49;;;;;;;11.65;10.45;;;;;;;21.28;68.81;100681.22;679957;29;1428;-82
2023/06/26 00:04:14;;;;;;;12.73;10.97;;;;;;;21.27;68.76;100684.75;681605;29;1662;-82
2023/06/26 00:04:37;;;;;;;13.88;10.90;;;;;;;21.27;68.77;100684.75;680781;28;1073;-82
2023/06/26 00:04:57;;;;;;;13.85;10.95;;;;;;;21.30;68.54;100681.19;682498;29;1097;-82
2023/06/26 00:05:18;;;;;;;12.35;10.38;;;;;;;21.25;68.71;100677.75;682803;28;1863;-82
2023/06/26 00:05:39;;;;;;;12.02;10.60;;;;;;;21.27;68.48;100671.50;681425;29;1147;-82
2023/06/26 00:06:00;;;;;;;12.95;11.20;;;;;;;21.24;68.65;100679.50;685088;28;1440;-82
2023/06/26 00:06:24;;;;;;;14.13;12.05;;;;;;;21.20;68.60;100673.38;683404;28;1547;-82
2023/06/26 00:06:45;;;;;;;13.73;12.00;;;;;;;21.21;68.75;100679.59;678247;29;1472;-82
2023/06/26 00:07:05;;;;;;;12.85;11.38;;;;;;;21.27;68.70;100686.56;679920;29;1480;-82
2023/06/26 00:07:26;;;;;;;11.98;10.43;;;;;;;21.20;68.81;100672.50;682718;29;1080;-82
2023/06/26 00:07:46;;;;;;;11.93;10.10;;;;;;;21.27;68.80;100694.50;682748;29;1171;-82
2023/06/26 00:08:07;;;;;;;11.93;10.50;;;;;;;21.23;68.98;100677.78;677269;29;1149;-82
2023/06/26 00:08:28;;;;;;;12.80;11.20;;;;;;;21.19;68.88;100676.06;677506;29;1060;-82
2023/06/26 00:08:49;;;;;;;13.73;11.60;;;;;;;21.23;68.75;100688.38;671979;29;1797;-82
2023/06/26 00:09:12;;;;;;;13.57;11.10;;;;;;;21.25;68.86;100681.25;679916;29;1324;-82
2023/06/26 00:09:33;;;;;;;13.65;11.25;;;;;;;21.20;68.83;100678.69;684979;28;1304;-82
2023/06/26 00:09:53;;;;;;;12.70;10.80;;;;;;;21.22;68.82;100683.97;682283;29;1002;-82
2023/06/26 00:10:14;;;;;;;13.02;11.57;;;;;;;21.18;68.73;100684.94;679823;29;1484;-82
2023/06/26 00:10:35;;;;;;;13.43;11.30;;;;;;;21.08;68.72;100674.47;675466;29;1200;-82
2023/06/26 00:10:55;;;;;;;13.93;11.18;;;;;;;21.12;68.83;100685.03;679278;29;1686;-82
2023/06/26 00:11:16;;;;;;;14.30;11.27;;;;;;;21.09;69.01;100686.84;682011;29;1321;-82
2023/06/26 00:11:37;;;;;;;13.07;11.20;;;;;;;21.08;68.95;100678.91;687409;28;1243;-82
2023/06/26 00:11:59;;;;;;;12.75;11.30;;;;;;;21.07;68.93;100678.03;681300;29;1532;-82
2023/06/26 00:12:19;;;;;;;12.30;10.82;;;;;;;21.06;68.75;100676.28;680026;29;1218;-82
2023/06/26 00:12:40;;;;;;;12.27;10.90;;;;;;;21.04;68.76;100672.81;679916;29;1262;-82
2023/06/26 00:13:01;;;;;;;12.87;11.23;;;;;;;21.10;68.75;100680.63;683756;28;1834;-83
2023/06/26 00:13:23;;;;;;;13.20;11.80;;;;;;;21.09;68.58;100681.53;681255;29;1180;-82
2023/06/26 00:13:44;;;;;;;13.70;12.00;;;;;;;21.09;68.53;100685.97;680040;29;1378;-82
2023/06/26 00:14:05;;;;;;;13.70;12.10;;;;;;;21.06;68.63;100681.59;683705;28;1636;-82
2023/06/26 00:14:25;;;;;;;14.00;12.10;;;;;;;21.07;68.49;100683.34;677256;29;1911;-82
2023/06/26 00:14:46;;;;;;;13.82;11.90;;;;;;;21.01;68.41;100672.84;677118;29;1182;-82
2023/06/26 00:15:07;;;;;;;13.00;11.60;;;;;;;21.02;68.51;100674.59;675767;29;1631;-83
2023/06/26 00:15:31;;;;;;;13.63;11.90;;;;;;;21.07;68.69;100683.34;680013;29;1235;-82
2023/06/26 00:15:51;;;;;;;14.32;12.40;;;;;;;21.04;68.65;100682.53;687495;28;1360;-83
2023/06/26 00:16:12;;;;;;;13.90;11.77;;;;;;;21.04;68.68;100672.81;679717;29;1578;-82
2023/06/26 00:16:33;;;;;;;13.00;11.50;;;;;;;21.05;68.67;100677.19;674826;29;968;-82
2023/06/26 00:16:53;;;;;;;12.55;11.13;;;;;;;21.07;69.04;100688.66;681525;29;1133;-82
2023/06/26 00:17:14;;;;;;;13.18;11.50;;;;;;;21.05;68.86;100674.56;684269;28;1491;-82
2023/06/26 00:17:37;;;;;;;13.02;11.48;;;;;;;21.07;68.92;100678.03;682466;28;1288;-82
2023/06/26 00:18:00;;;;;;;13.40;11.02;;;;;;;21.03;68.90;100671.03;679879;29;1258;-82
2023/06/26 00:18:21;;;;;;;13.18;10.95;;;;;;;21.04;68.72;100678.09;682292;29;1601;-82
2023/06/26 00:18:41;;;;;;;13.10;10.80;;;;;;;21.05;68.56;100684.28;681383;29;1144;-82
2023/06/26 00:19:02;;;;;;;12.80;11.07;;;;;;;21.03;68.76;100680.78;679766;29;1299;-82
2023/06/26 00:19:22;;;;;;;12.97;10.90;;;;;;;21.00;68.67;100671.09;685220;28;1316;-83
2023/06/26 00:19:43;;;;;;;12.70;10.90;;;;;;;21.02;68.56;100679.88;685344;28;1068;-83
2023/06/26 00:20:05;;;;;;;14.40;11.37;;;;;;;21.00;68.86;100675.50;679851;29;1056;-82
2023/06/26 00:20:27;;;;;;;14.10;11.00;;;;;;;21.02;68.70;100682.53;677152;29;1819;-83
2023/06/26 00:20:47;;;;;;;14.87;10.90;;;;;;;21.01;68.51;100678.13;679953;29;1262;-83
2023/06/26 00:21:08;;;;;;;13.18;10.77;;;;;;;21.03;68.89;100686.09;687022;28;1113;-82
2023/06/26 00:21:29;;;;;;;13.25;11.02;;;;;;;20.94;68.80;100665.88;688024;28;1063;-82
2023/06/26 00:21:49;;;;;;;12.57;10.90;;;;;;;20.99;68.71;100679.94;677167;29;1739;-82
2023/06/26 00:22:11;;;;;;;12.18;10.88;;;;;;;21.01;68.84;100679.94;677389;29;1018;-82
2023/06/26 00:22:31;;;;;;;12.70;11.30;;;;;;;20.96;68.66;100672.91;674338;29;1301;-82
2023/06/26 00:22:53;;;;;;;12.98;11.57;;;;;;;20.93;68.79;100666.78;681385;29;1620;-82
2023/06/26 00:23:16;;;;;;;12.77;11.25;;;;;;;20.97;68.83;100671.16;677408;29;1269;-82
2023/06/26 00:23:37;;;;;;;11.95;10.65;;;;;;;21.00;69.10;100681.69;680400;28;1439;-82
2023/06/26 00:23:58;;;;;;;12.10;10.80;;;;;;;20.96;68.93;100674.69;676961;29;1381;-83
2023/06/26 00:24:19;;;;;;;12.60;11.00;;;;;;;21.00;68.85;100681.69;679356;29;1364;-83
2023/06/26 00:24:54;;;;;;;13.83;11.10;;;;;;;20.98;69.05;100677.31;680917;28;1416;-82
2023/06/26 00:25:15;;;;;;;14.32;11.90;;;;;;;20.95;68.99;100673.81;682679;29;1136;-82
2023/06/26 00:25:36;;;;;;;14.07;12.13;;;;;;;20.96;69.15;100664.06;685153;28;1395;-83
2023/06/26 00:25:56;;;;;;;13.00;11.43;;;;;;;20.98;69.39;100670.25;686917;28;1055;-81
2023/06/26 00:26:17;;;;;;;12.48;11.18;;;;;;;21.00;69.33;100676.41;686784;28;1158;-82
2023/06/26 00:26:38;;;;;;;12.50;11.00;;;;;;;21.00;69.43;100679.03;685292;28;1084;-82
2023/06/26 00:26:58;;;;;;;12.90;11.60;;;;;;;20.96;69.27;100666.72;679491;29;1707;-82
2023/06/26 00:27:20;;;;;;;13.10;11.70;;;;;;;20.96;69.59;100670.25;680115;29;1228;-82
2023/06/26 00:27:40;;;;;;;13.73;11.90;;;;;;;20.93;69.38;100659.72;683209;28;1129;-82
2023/06/26 00:28:01;;;;;;;15.80;11.80;;;;;;;20.96;69.48;100672.03;681620;28;1510;-82
2023/06/26 00:28:22;;;;;;;15.90;11.55;;;;;;;20.99;69.29;100671.09;680152;29;1447;-82
2023/06/26 00:28:43;;;;;;;15.23;11.30;;;;;;;20.94;69.37;100657.94;684660;28;1143;-82
2023/06/26 00:29:03;;;;;;;13.45;11.45;;;;;;;20.98;69.62;100672.91;684897;28;1174;-83
2023/06/26 00:29:24;;;;;;;14.10;11.75;;;;;;;20.94;69.60;100665.88;682472;29;1950;-82
2023/06/26 00:29:45;;;;;;;13.95;11.50;;;;;;;20.91;69.62;100661.50;682172;29;1179;-82
2023/06/26 00:30:06;;;;;;;14.07;11.53;;;;;;;20.95;69.53;100665.88;677108;29;1293;-82
2023/06/26 00:30:27;;;;;;;13.40;11.27;;;;;;;21.03;69.55;100678.97;679988;29;1046;-82
2023/06/26 00:30:47;;;;;;;14.43;11.70;;;;;;;20.98;69.61;100670.25;677464;29;1136;-82
2023/06/26 00:31:08;;;;;;;14.43;11.70;;;;;;;20.99;69.45;100669.34;678436;29;1147;-82
2023/06/26 00:31:28;;;;;;;14.83;11.70;;;;;;;21.00;69.51;100671.09;684307;28;1798;-82
2023/06/26 00:31:49;;;;;;;13.77;11.40;;;;;;;21.00;69.38;100670.19;680129;29;951;-82
2023/06/26 00:32:09;;;;;;;13.00;10.83;;;;;;;21.02;69.51;100679.03;686925;28;1147;-82
2023/06/26 00:32:30;;;;;;;12.57;11.18;;;;;;;20.96;69.33;100674.69;682815;28;1553;-82
2023/06/26 00:32:51;;;;;;;12.43;11.13;;;;;;;21.01;69.42;100672.84;685584;28;1346;-82
2023/06/26 00:33:11;;;;;;;13.10;11.60;;;;;;;20.98;69.41;100675.56;677912;29;1184;-82
2023/06/26 00:33:32;;;;;;;13.30;11.60;;;;;;;20.97;69.53;100668.50;678004;29;1468;-82
2023/06/26 00:33:52;;;;;;;13.80;11.57;;;;;;;20.98;69.61;100669.34;680493;29;1022;-82
2023/06/26 00:34:14;;;;;;;13.07;11.13;;;;;;;20.93;69.53;100669.44;680447;29;1914;-82
2023/06/26 00:34:35;;;;;;;12.88;11.20;;;;;;;20.95;69.45;100673.81;677596;29;1257;-82
2023/06/26 00:34:55;;;;;;;12.80;11.10;;;;;;;20.93;69.55;100672.09;677293;29;1099;-82
2023/06/26 00:35:16;;;;;;;12.57;10.88;;;;;;;20.94;69.52;100672.06;675403;29;952;-82
2023/06/26 00:35:38;;;;;;;13.52;10.38;;;;;;;20.92;69.35;100667.69;677796;29;1521;-82
2023/06/26 00:35:59;;;;;;;13.57;10.50;;;;;;;20.94;69.45;100665.88;687085;28;1182;-82
2023/06/26 00:36:22;;;;;;;13.95;11.20;;;;;;;21.00;69.38;100679.03;683250;29;1108;-82
2023/06/26 00:36:43;;;;;;;13.55;11.20;;;;;;;20.94;69.53;100669.44;682197;29;1550;-82
2023/06/26 00:37:04;;;;;;;13.00;10.90;;;;;;;20.95;69.37;100672.94;680042;29;1179;-82
2023/06/26 00:37:25;;;;;;;11.75;10.43;;;;;;;20.93;69.38;100669.44;678032;29;1058;-82
2023/06/26 00:37:46;;;;;;;11.80;10.50;;;;;;;20.89;69.29;100662.47;682027;29;1542;-82
2023/06/26 00:38:07;;;;;;;12.67;11.10;;;;;;;20.93;69.21;100669.44;685636;28;1057;-82
2023/06/26 00:38:27;;;;;;;13.60;11.73;;;;;;;20.91;69.18;100668.59;685851;28;976;-82
2023/06/26 00:38:49;;;;;;;13.90;11.80;;;;;;;20.94;69.41;100673.84;683124;28;1203;-82
2023/06/26 00:39:10;;;;;;;14.52;11.13;;;;;;;20.95;69.27;100675.59;685489;28;1000;-82
2023/06/26 00:39:31;;;;;;;14.00;11.15;;;;;;;20.94;69.40;100671.19;678336;29;1322;-82
2023/06/26 00:39:51;;;;;;;14.68;11.27;;;;;;;21.00;69.48;100680.81;685108;28;1613;-82
2023/06/26 00:40:12;;;;;;;15.35;12.00;;;;;;;20.98;69.52;100679.97;680288;29;1389;-82
2023/06/26 00:40:33;;;;;;;16.25;11.85;;;;;;;20.95;69.50;100672.94;684940;28;1143;-82
2023/06/26 00:40:54;;;;;;;15.13;11.70;;;;;;;20.98;69.33;100677.31;685747;28;1229;-82
2023/06/26 00:41:15;;;;;;;13.15;11.10;;;;;;;20.98;69.45;100680.84;685344;28;1801;-82
2023/06/26 00:41:37;;;;;;;12.48;11.10;;;;;;;20.98;69.43;100672.00;677833;29;1443;-82
2023/06/26 00:41:58;;;;;;;12.40;11.05;;;;;;;20.98;69.40;100672.91;679589;29;1288;-83
2023/06/26 00:42:18;;;;;;;13.13;10.93;;;;;;;20.96;69.28;100670.25;677007;29;1505;-82
2023/06/26 00:42:39;;;;;;;14.45;10.95;;;;;;;20.96;69.39;100675.56;677544;29;1649;-82
2023/06/26 00:43:00;;;;;;;14.65;10.73;;;;;;;20.98;69.35;100678.22;677759;29;1059;-82
2023/06/26 00:43:20;;;;;;;15.33;11.17;;;;;;;20.94;69.08;100665.88;677800;29;1448;-83
2023/06/26 00:43:42;;;;;;;14.10;11.27;;;;;;;20.90;69.16;100658.91;681425;29;1073;-82
2023/06/26 00:44:05;;;;;;;14.57;11.27;;;;;;;20.95;69.08;100670.28;681869;29;1408;-82
2023/06/26 00:44:50;;;;;;;13.48;10.98;;;;;;;20.99;69.02;100679.94;680233;29;1546;-82
2023/06/26 00:45:11;;;;;;;16.30;11.60;;;;;;;20.89;69.00;100668.63;682853;29;1259;-82
2023/06/26 00:45:31;;;;;;;15.57;11.30;;;;;;;20.88;68.88;100671.28;682939;29;1198;-82
2023/06/26 00:45:52;;;;;;;13.40;10.88;;;;;;;20.88;68.82;100665.97;682980;29;974;-82
2023/06/26 00:46:14;;;;;;;11.63;10.43;;;;;;;20.91;68.96;100674.75;682288;29;1025;-82
2023/06/26 00:46:35;;;;;;;12.40;11.10;;;;;;;20.89;68.95;100671.28;677011;29;1099;-82
2023/06/26 00:46:56;;;;;;;13.38;11.30;;;;;;;20.87;69.15;100666.88;677402;29;1422;-83
2023/06/26 00:47:17;;;;;;;13.30;11.40;;;;;;;20.85;69.21;100666.03;675164;29;1134;-82
2023/06/26 00:47:38;;;;;;;12.93;11.05;;;;;;;20.89;69.23;100671.28;683605;28;1233;-82
2023/06/26 00:48:01;;;;;;;12.07;10.77;;;;;;;20.84;69.23;100665.16;682852;29;1157;-82
2023/06/26 00:48:23;;;;;;;12.80;11.13;;;;;;;20.84;69.19;100659.00;680390;29;1097;-82
2023/06/26 00:48:47;;;;;;;14.38;11.50;;;;;;;20.88;69.31;100668.63;681134;29;1127;-82
2023/06/26 00:49:08;;;;;;;14.50;11.70;;;;;;;20.81;69.31;100666.09;680240;29;1204;-82
2023/06/26 00:49:29;;;;;;;13.83;11.43;;;;;;;20.82;69.39;100667.84;680647;29;991;-82
2023/06/26 00:49:50;;;;;;;12.60;11.20;;;;;;;20.80;69.42;100661.72;682516;29;1526;-82
2023/06/26 00:50:11;;;;;;;13.43;11.40;;;;;;;20.80;69.54;100664.34;683003;29;1479;-82
2023/06/26 00:50:32;;;;;;;14.43;11.80;;;;;;;20.81;69.43;100660.81;682705;29;1084;-82
2023/06/26 00:50:53;;;;;;;14.40;11.80;;;;;;;20.80;69.44;100664.34;681624;29;1741;-82
2023/06/26 00:51:14;;;;;;;14.25;11.88;;;;;;;20.84;69.34;100669.59;677873;29;1218;-82
2023/06/26 00:51:35;;;;;;;14.00;11.90;;;;;;;20.80;69.30;100664.34;678327;29;1284;-82
2023/06/26 00:51:56;;;;;;;14.98;12.05;;;;;;;20.75;69.33;100655.59;679996;29;1479;-82
2023/06/26 00:52:17;;;;;;;16.02;11.77;;;;;;;20.80;69.43;100664.34;681361;29;1268;-82
2023/06/26 00:52:38;;;;;;;16.67;11.90;;;;;;;20.77;69.52;100664.38;681955;29;1076;-82
2023/06/26 00:53:01;;;;;;;14.80;11.60;;;;;;;20.79;69.61;100661.72;680736;29;1562;-82
2023/06/26 00:53:22;;;;;;;12.98;11.52;;;;;;;20.76;69.35;100662.66;683218;28;1009;-83
2023/06/26 00:53:43;;;;;;;12.25;10.95;;;;;;;20.81;69.42;100674.06;684672;28;1017;-82
2023/06/26 00:54:05;;;;;;;13.07;11.00;;;;;;;20.78;69.29;100666.13;677298;29;1391;-82
2023/06/26 00:54:26;;;;;;;13.30;10.93;;;;;;;20.75;69.34;100658.25;683150;28;1922;-82
2023/06/26 00:54:48;;;;;;;12.98;10.82;;;;;;;20.77;69.33;100669.69;685801;28;1131;-82
2023/06/26 00:55:09;;;;;;;12.80;11.20;;;;;;;20.77;69.36;100668.84;690753;28;1771;-82
2023/06/26 00:55:30;;;;;;;12.30;11.00;;;;;;;20.73;69.08;100660.06;686575;28;1587;-82
2023/06/26 00:55:51;;;;;;;12.60;11.00;;;;;;;20.73;69.35;100667.13;679940;29;1449;-82
2023/06/26 00:56:12;;;;;;;12.90;11.00;;;;;;;20.75;69.23;100671.50;677411;29;1472;-82
2023/06/26 00:56:32;;;;;;;13.27;10.90;;;;;;;20.77;69.14;100669.69;681344;29;1215;-82
2023/06/26 00:56:53;;;;;;;12.98;10.73;;;;;;;20.71;69.21;100667.13;680123;29;1291;-82
2023/06/26 00:57:14;;;;;;;14.65;11.38;;;;;;;20.67;69.20;100663.63;680390;29;1376;-82
2023/06/26 00:57:35;;;;;;;15.00;11.60;;;;;;;20.75;68.89;100668.84;676076;29;1103;-82
2023/06/26 00:57:56;;;;;;;14.30;11.40;;;;;;;20.70;68.78;100662.75;680261;29;1022;-82
2023/06/26 00:58:16;;;;;;;13.55;10.50;;;;;;;20.69;69.00;100656.53;685837;28;955;-83
2023/06/26 00:58:37;;;;;;;13.40;10.30;;;;;;;20.67;68.76;100655.66;682976;29;1159;-82
2023/06/26 00:58:57;;;;;;;13.33;10.60;;;;;;;20.70;68.78;100670.69;682945;29;1605;-80
2023/06/26 00:59:20;;;;;;;13.15;11.48;;;;;;;20.73;69.06;100662.72;683115;29;1245;-80
2023/06/26 00:59:42;;;;;;;13.13;11.52;;;;;;;20.67;68.68;100652.16;683027;29;1549;-80
2023/06/26 01:00:03;;;;;;;13.20;11.70;;;;;;;20.73;68.96;100675.06;674793;29;1542;-80
2023/06/26 01:00:24;;;;;;;12.10;10.70;;;;;;;20.64;68.68;100657.50;680261;29;1243;-80
2023/06/26 01:00:51;;;;;;;12.70;10.70;;;;;;;20.70;68.82;100662.75;684936;28;1417;-80
2023/06/26 01:01:17;;;;;;;11.88;10.30;;;;;;;20.70;68.82;100665.38;680399;29;972;-80
2023/06/26 01:01:38;;;;;;;11.45;10.25;;;;;;;20.65;68.70;100664.56;683947;28;1556;-80
2023/06/26 01:01:58;;;;;;;12.30;11.00;;;;;;;20.66;68.71;100658.38;686885;28;1107;-80
2023/06/26 01:02:20;;;;;;;12.98;11.60;;;;;;;20.64;68.79;100655.72;677902;29;1158;-79
2023/06/26 01:02:40;;;;;;;12.75;11.25;;;;;;;20.64;68.77;100652.19;679624;29;1480;-79
2023/06/26 01:03:01;;;;;;;12.30;10.90;;;;;;;20.68;68.68;100662.75;675081;29;1168;-82
2023/06/26 01:03:24;;;;;;;12.05;10.27;;;;;;;20.63;68.60;100653.97;685764;28;1381;-82
2023/06/26 01:03:45;;;;;;;15.30;10.68;;;;;;;20.64;68.64;100658.38;684858;28;1557;-82
2023/06/26 01:04:06;;;;;;;14.82;10.40;;;;;;;20.69;68.37;100671.56;677661;29;1255;-82
2023/06/26 01:04:27;;;;;;;11.95;10.43;;;;;;;20.68;68.46;100660.09;683070;29;1289;-83
2023/06/26 01:04:49;;;;;;;12.07;10.50;;;;;;;20.62;68.37;100659.31;685552;28;1159;-82
2023/06/26 01:05:12;;;;;;;12.85;11.05;;;;;;;20.63;68.51;100653.09;685606;28;1408;-82
2023/06/26 01:05:32;;;;;;;14.05;11.20;;;;;;;20.65;68.58;100659.28;685708;28;1469;-82
2023/06/26 01:05:56;;;;;;;14.70;11.27;;;;;;;20.68;68.75;100662.75;682999;29;1030;-82
2023/06/26 01:06:17;;;;;;;14.68;11.15;;;;;;;20.62;68.43;100644.28;680534;29;1010;-81
2023/06/26 01:06:38;;;;;;;12.70;10.77;;;;;;;20.61;68.63;100645.19;682608;29;1012;-81
2023/06/26 01:07:01;;;;;;;12.20;10.90;;;;;;;20.61;68.65;100650.50;682420;29;1408;-80
2023/06/26 01:07:23;;;;;;;12.10;10.80;;;;;;;20.64;68.57;100654.84;685422;28;1066;-81
2023/06/26 01:07:43;;;;;;;12.80;11.13;;;;;;;20.67;68.70;100657.47;685025;28;1061;-81
2023/06/26 01:08:04;;;;;;;13.02;10.90;;;;;;;20.63;68.79;100647.78;681643;29;1158;-80
2023/06/26 01:08:26;;;;;;;12.35;10.43;;;;;;;20.62;68.54;100648.69;683061;29;1182;-81
2023/06/26 01:08:48;;;;;;;11.73;9.73;;;;;;;20.64;68.58;100649.53;682465;29;1170;-82
2023/06/26 01:09:09;;;;;;;12.15;10.30;;;;;;;20.61;68.54;100645.19;685387;28;1323;-81
2023/06/26 01:09:42;;;;;;;13.18;11.23;;;;;;;20.68;68.54;100662.75;682820;29;1237;-81
2023/06/26 01:10:05;;;;;;;13.95;11.63;;;;;;;20.66;68.55;100651.28;682027;29;1255;-81
2023/06/26 01:10:27;;;;;;;13.75;11.80;;;;;;;20.62;68.57;100649.59;677679;29;1750;-81
2023/06/26 01:10:48;;;;;;;13.40;12.00;;;;;;;20.62;68.65;100643.41;677297;29;1281;-80
2023/06/26 01:11:10;;;;;;;14.13;11.95;;;;;;;20.63;68.48;100639.84;677091;29;1172;-80
2023/06/26 01:11:30;;;;;;;14.20;11.82;;;;;;;20.63;68.46;100648.69;679622;29;1479;-80
2023/06/26 01:11:52;;;;;;;13.77;11.48;;;;;;;20.61;68.42;100650.50;687887;28;1141;-80
2023/06/26 01:12:14;;;;;;;12.98;11.48;;;;;;;20.66;68.26;100663.66;688439;28;1145;-82
2023/06/26 01:12:36;;;;;;;13.93;11.10;;;;;;;20.64;68.29;100652.19;680203;29;1526;-81
2023/06/26 01:12:57;;;;;;;13.20;10.50;;;;;;;20.57;68.15;100646.13;680160;29;1417;-81
2023/06/26 01:13:18;;;;;;;12.63;10.53;;;;;;;20.53;68.17;100640.00;677224;29;1369;-81
2023/06/26 01:13:42;;;;;;;12.30;11.00;;;;;;;20.56;68.01;100649.69;675520;29;1539;-81
2023/06/26 01:14:03;;;;;;;13.00;11.13;;;;;;;20.55;68.11;100648.78;677525;29;1062;-81
2023/06/26 01:14:23;;;;;;;12.85;10.75;;;;;;;20.54;68.02;100646.19;682664;29;1985;-81
2023/06/26 01:14:44;;;;;;;12.68;10.63;;;;;;;20.57;68.26;100650.56;688002;28;1491;-82
2023/06/26 01:15:06;;;;;;;12.30;10.90;;;;;;;20.59;68.11;100648.75;685274;28;1557;-81
2023/06/26 01:15:27;;;;;;;12.20;10.90;;;;;;;20.56;68.19;100644.38;680556;29;1051;-81
2023/06/26 01:15:49;;;;;;;12.10;10.60;;;;;;;20.60;67.92;100647.84;678328;29;1525;-81
2023/06/26 01:16:10;;;;;;;12.20;10.60;;;;;;;20.57;67.91;100645.25;677714;29;1407;-82
2023/06/26 01:16:32;;;;;;;12.23;10.65;;;;;;;20.57;67.82;100650.56;682472;28;1458;-82
2023/06/26 01:16:57;;;;;;;13.15;10.68;;;;;;;20.54;67.87;100649.69;687988;28;1216;-81
2023/06/26 01:17:19;;;;;;;13.25;10.80;;;;;;;20.59;67.80;100646.09;677880;29;1263;-82
2023/06/26 01:17:40;;;;;;;13.02;10.70;;;;;;;20.53;67.81;100640.00;681638;29;1181;-81
2023/06/26 01:18:03;;;;;;;12.73;10.63;;;;;;;20.55;67.74;100634.69;682638;29;1843;-81
2023/06/26 01:18:25;;;;;;;12.23;10.38;;;;;;;20.61;67.60;100646.94;685727;28;1034;-81
2023/06/26 01:18:48;;;;;;;12.15;10.65;;;;;;;20.57;67.73;100638.16;687376;28;1352;-81
2023/06/26 01:19:15;;;;;;;12.30;11.00;;;;;;;20.58;67.65;100641.72;680043;29;1606;-81
2023/06/26 01:19:35;;;;;;;11.90;10.70;;;;;;;20.57;67.49;100642.63;680117;29;1106;-81
2023/06/26 01:19:56;;;;;;;12.02;10.82;;;;;;;20.54;67.41;100639.09;681923;29;1201;-81
2023/06/26 01:20:18;;;;;;;13.03;11.40;;;;;;;20.57;67.51;100639.97;682953;29;1362;-81
2023/06/26 01:20:41;;;;;;;12.52;10.88;;;;;;;20.57;67.30;100646.13;684135;28;1186;-81
2023/06/26 01:21:04;;;;;;;12.93;10.48;;;;;;;20.53;67.29;100634.69;682796;28;1869;-81
2023/06/26 01:21:32;;;;;;;13.00;10.82;;;;;;;20.52;67.18;100635.59;679781;29;1258;-81
2023/06/26 01:21:59;;;;;;;13.10;11.00;;;;;;;20.48;67.10;100631.22;682524;29;1289;-81
2023/06/26 01:22:34;;;;;;;11.50;10.00;;;;;;;20.50;66.86;100637.41;678417;29;1416;-80
2023/06/26 01:23:01;;;;;;;11.75;9.73;;;;;;;20.54;66.95;100643.53;677565;29;1129;-81
2023/06/26 01:23:56;;;;;;;12.27;10.40;;;;;;;20.52;66.87;100648.84;681168;29;1506;-81
2023/06/26 01:24:20;;;;;;;12.27;10.60;;;;;;;20.47;66.82;100640.09;667267;29;1224;-81
2023/06/26 01:25:03;;;;;;;12.25;10.40;;;;;;;20.45;66.78;100641.88;668689;29;1121;-81
2023/06/26 01:25:41;;;;;;;11.35;10.07;;;;;;;20.48;66.82;100652.44;674620;29;1820;-81
2023/06/26 01:26:15;;;;;;;12.98;10.60;;;;;;;20.43;66.56;100637.50;677373;29;1689;-81
2023/06/26 01:26:36;;;;;;;14.43;10.50;;;;;;;20.44;66.65;100640.13;682781;28;1176;-81
2023/06/26 01:27:00;;;;;;;13.68;10.10;;;;;;;20.43;66.67;100646.34;682724;29;1385;-81
2023/06/26 01:27:22;;;;;;;11.45;10.00;;;;;;;20.43;66.68;100643.69;680335;29;1206;-81
2023/06/26 01:27:49;;;;;;;13.00;9.95;;;;;;;20.44;66.79;100639.25;682075;28;1517;-81
2023/06/26 01:28:13;;;;;;;14.82;10.45;;;;;;;20.40;67.02;100638.41;682847;29;1065;-81
2023/06/26 01:28:37;;;;;;;15.52;10.80;;;;;;;20.42;66.84;100644.59;685675;28;1239;-81
2023/06/26 01:29:00;;;;;;;14.27;10.88;;;;;;;20.39;66.82;100632.25;682799;28;1593;-81
2023/06/26 01:29:23;;;;;;;13.25;10.90;;;;;;;20.39;66.85;100631.38;680448;29;1339;-81
2023/06/26 01:29:45;;;;;;;13.10;11.00;;;;;;;20.42;67.06;100636.66;676825;29;1483;-81
2023/06/26 01:30:08;;;;;;;12.85;10.95;;;;;;;20.41;67.02;100634.91;682675;28;1422;-81
2023/06/26 01:30:30;;;;;;;12.70;10.93;;;;;;;20.40;67.02;100633.13;685535;28;1369;-81
2023/06/26 01:30:52;;;;;;;13.60;10.95;;;;;;;20.45;67.05;100641.88;684537;28;1467;-81
2023/06/26 01:31:13;;;;;;;14.52;11.15;;;;;;;20.40;67.24;100627.81;680313;29;1037;-81
2023/06/26 01:31:35;;;;;;;13.70;10.50;;;;;;;20.40;67.33;100633.13;675736;29;1253;-82
2023/06/26 01:31:56;;;;;;;11.48;10.02;;;;;;;20.37;67.44;100627.88;682521;29;1534;-81
2023/06/26 01:32:18;;;;;;;12.10;9.60;;;;;;;20.43;67.48;100638.38;685006;28;1168;-81
2023/06/26 01:32:39;;;;;;;13.57;9.90;;;;;;;20.36;67.26;100629.63;682096;29;1523;-81
2023/06/26 01:33:01;;;;;;;14.50;10.27;;;;;;;20.33;67.44;100623.50;677545;29;1208;-81
2023/06/26 01:33:22;;;;;;;14.65;10.52;;;;;;;20.35;67.40;100624.38;682984;29;1083;-81
2023/06/26 01:33:47;;;;;;;14.65;10.75;;;;;;;20.38;67.52;100629.63;684965;28;1270;-81
2023/06/26 01:34:08;;;;;;;15.32;11.07;;;;;;;20.34;67.46;100627.94;676839;29;1419;-81
2023/06/26 01:34:29;;;;;;;14.35;11.23;;;;;;;20.34;67.48;100623.50;679765;29;1911;-81
2023/06/26 01:34:51;;;;;;;15.00;11.07;;;;;;;20.37;67.55;100638.47;680248;29;1616;-81
2023/06/26 01:35:14;;;;;;;13.60;10.73;;;;;;;20.34;67.54;100627.94;681190;29;1538;-81
2023/06/26 01:35:35;;;;;;;11.88;10.32;;;;;;;20.35;67.68;100634.97;682915;29;1244;-81
2023/06/26 01:36:00;;;;;;;11.43;10.20;;;;;;;20.36;67.60;100639.38;681394;29;1351;-81
2023/06/26 01:36:23;;;;;;;11.20;10.00;;;;;;;20.30;67.86;100621.81;679026;29;1744;-81
2023/06/26 01:36:45;;;;;;;11.80;10.55;;;;;;;20.31;67.71;100617.38;682221;29;1340;-81
2023/06/26 01:37:06;;;;;;;13.40;10.90;;;;;;;20.31;67.59;100628.84;682665;29;1314;-82
2023/06/26 01:37:28;;;;;;;13.90;10.90;;;;;;;20.29;67.76;100630.66;678890;29;1487;-81
2023/06/26 01:37:48;;;;;;;13.07;10.20;;;;;;;20.32;67.78;100633.25;680335;29;1108;-81
2023/06/26 01:38:12;;;;;;;12.52;9.88;;;;;;;20.29;67.41;100628.00;677680;29;1111;-81
2023/06/26 01:38:34;;;;;;;13.30;10.07;;;;;;;20.33;67.55;100636.75;680101;29;1816;-82
2023/06/26 01:38:55;;;;;;;13.93;10.45;;;;;;;20.31;67.63;100633.25;680261;29;1176;-81
2023/06/26 01:39:19;;;;;;;13.05;10.50;;;;;;;20.28;67.56;100629.78;684419;28;1119;-82
2023/06/26 01:39:39;;;;;;;13.23;10.55;;;;;;;20.24;67.69;100624.53;682795;29;1859;-81
2023/06/26 01:40:00;;;;;;;13.05;10.52;;;;;;;20.23;67.66;100614.84;682784;29;1148;-81
2023/06/26 01:40:20;;;;;;;11.10;9.80;;;;;;;20.24;67.81;100624.53;677525;29;1323;-81
2023/06/26 01:40:41;;;;;;;11.07;9.80;;;;;;;20.21;67.59;100622.81;680350;29;1559;-81
2023/06/26 01:41:03;;;;;;;12.13;10.47;;;;;;;20.24;67.59;100632.50;677106;29;1150;-81
2023/06/26 01:41:24;;;;;;;13.00;11.00;;;;;;;20.25;67.49;100629.81;677708;29;1630;-81
2023/06/26 01:41:45;;;;;;;13.60;11.30;;;;;;;20.19;67.45;100616.66;677423;29;1372;-82
2023/06/26 01:42:07;;;;;;;12.80;10.75;;;;;;;20.18;67.51;100612.28;682926;28;1390;-81
2023/06/26 01:42:28;;;;;;;14.35;10.20;;;;;;;20.18;67.40;100616.69;685583;28;1442;-81
2023/06/26 01:42:49;;;;;;;14.07;9.50;;;;;;;20.25;67.56;100628.94;687970;28;1552;-81